Online since October of 2007


Active alerts


No alerts

Bigbaywx more information Bigbaywx


mount mesnard more information Mount Mesnard


visit our other weather sites:

Template documentation
and downloads

And another site


CBI


nearby metar reports

   
KSAW - Sawyer, Michigan
updated: Mar 24 2019 7:47 pm
clear  
clear  
   wind: north 19.6 mph
wind: north 19.6 mph
temperature: 23°F
wind chill: 8.6°F
dew point: 12.2°F
humidity: 63%
barometer: 30.24 inHg
clouds: clear
visibility: 10 mi
cloud details: clear
KSAW 242347Z 01017KT 10SM SKC M05/M11 A3024
KESC - Escanaba, Michigan
updated: Mar 24 2019 7:56 pm
clear  
clear  
   wind: nne 6.9 mph
wind: nne 6.9 mph
temperature: 28.4°F
wind chill: 21.2°F
dew point: 12.2°F
humidity: 51%
barometer: 30.26 inHg
clouds: clear
visibility: 10 mi
cloud details: clear
KESC 242356Z AUTO 02006KT 10SM CLR M02/M11 A3026 RMK AO2 SLP276 T10221111 10011 21022 53019 FZRANO
KIMT - Iron Mountain, MI
updated: Mar 24 2019 7:54 pm
clear  
clear  
   wind: nne 9.2 mph
wind: nne 9.2 mph
temperature: 30.2°F
wind chill: 21.2°F
dew point: 8.6°F
humidity: 40%
barometer: 30.23 inHg
clouds: clear
visibility: 10 mi
cloud details: clear
KIMT 242354Z AUTO 02008KT 10SM CLR M01/M13 A3023 RMK AO2 SLP254 T10111128 10011 21011 53013
KGRB - Green Bay, WI
updated: Mar 24 2019 7:53 pm
overcast  
overcast  
   wind: ne 16.1 mph
wind: ne 16.1 mph
temperature: 33.8°F
wind chill: 24.8°F
dew point: 23°F
humidity: 65%
barometer: 30.21 inHg
clouds: overcast
visibility: 10 mi
cloud details: overcast 1219 m
KGRB 242353Z 04014KT 10SM OVC040 01/M05 A3021 RMK AO2 SLP240 T00111050 10061 20011 53017
KDET - Detroit, MI
updated: Mar 24 2019 7:53 pm
overcast  
overcast  
   wind: wsw 5.8 mph
wind: wsw 5.8 mph
temperature: 51.8°F
dew point: 28.4°F
humidity: 41%
barometer: 30.05 inHg
clouds: overcast
visibility: 10 mi
cloud details: overcast 2286 m
KDET 242353Z 24005KT 10SM OVC075 11/M02 A3005 RMK AO2 SLP180 T01061022 10128 20106 50001
 

script developed by  Saratoga-weather.org adapted for the template by  Weerstation Leuven

you find our weather info also at:

Weather Underground

midwestern weather network

WeatherlinkIP

Citizen Weather Observer Program (CWOP)

equipment we use:

weather-station
Davis VP2

weather-program
Davis Weatherlink.Com

Davis VP2

Davis Weatherlink.Com